sensor_id;sensor_type;location;lat;lon;timestamp;P1;durP1;ratioP1;P2;durP2;ratioP2
32216;SDS011;67098;51.140;4.088;2024-01-27T00:00:09;36.05;;;7.80;;
32216;SDS011;67098;51.140;4.088;2024-01-27T00:02:35;23.05;;;8.18;;
32216;SDS011;67098;51.140;4.088;2024-01-27T00:05:01;28.52;;;8.00;;
32216;SDS011;67098;51.140;4.088;2024-01-27T00:07:27;26.38;;;8.32;;
32216;SDS011;67098;51.140;4.088;2024-01-27T00:09:54;29.58;;;8.10;;
32216;SDS011;67098;51.140;4.088;2024-01-27T00:12:20;26.65;;;7.38;;
32216;SDS011;67098;51.140;4.088;2024-01-27T00:14:46;30.08;;;7.82;;
32216;SDS011;67098;51.140;4.088;2024-01-27T00:17:12;30.38;;;8.27;;
32216;SDS011;67098;51.140;4.088;2024-01-27T00:19:38;31.83;;;8.68;;
32216;SDS011;67098;51.140;4.088;2024-01-27T00:22:03;27.95;;;7.43;;
32216;SDS011;67098;51.140;4.088;2024-01-27T00:24:30;36.60;;;8.98;;
32216;SDS011;67098;51.140;4.088;2024-01-27T00:26:55;20.98;;;7.50;;
32216;SDS011;67098;51.140;4.088;2024-01-27T00:29:22;23.00;;;7.57;;
32216;SDS011;67098;51.140;4.088;2024-01-27T00:31:47;28.35;;;8.13;;
32216;SDS011;67098;51.140;4.088;2024-01-27T00:34:14;23.02;;;7.07;;
32216;SDS011;67098;51.140;4.088;2024-01-27T00:36:40;31.23;;;7.85;;
32216;SDS011;67098;51.140;4.088;2024-01-27T00:39:07;30.50;;;8.23;;
32216;SDS011;67098;51.140;4.088;2024-01-27T00:41:33;31.73;;;8.13;;
32216;SDS011;67098;51.140;4.088;2024-01-27T00:43:59;34.80;;;8.27;;
32216;SDS011;67098;51.140;4.088;2024-01-27T00:46:25;25.88;;;8.30;;
32216;SDS011;67098;51.140;4.088;2024-01-27T00:48:51;24.55;;;8.00;;
32216;SDS011;67098;51.140;4.088;2024-01-27T00:51:17;26.55;;;7.63;;
32216;SDS011;67098;51.140;4.088;2024-01-27T00:53:43;22.55;;;7.65;;
32216;SDS011;67098;51.140;4.088;2024-01-27T00:56:09;32.40;;;7.75;;
32216;SDS011;67098;51.140;4.088;2024-01-27T00:58:35;23.20;;;7.82;;
32216;SDS011;67098;51.140;4.088;2024-01-27T01:01:01;24.88;;;8.48;;
32216;SDS011;67098;51.140;4.088;2024-01-27T01:03:26;25.98;;;7.55;;
32216;SDS011;67098;51.140;4.088;2024-01-27T01:05:52;29.77;;;8.73;;
32216;SDS011;67098;51.140;4.088;2024-01-27T01:08:18;20.40;;;8.02;;
32216;SDS011;67098;51.140;4.088;2024-01-27T01:10:44;26.55;;;8.40;;
32216;SDS011;67098;51.140;4.088;2024-01-27T01:13:09;29.25;;;8.32;;
32216;SDS011;67098;51.140;4.088;2024-01-27T01:15:35;29.67;;;8.18;;
32216;SDS011;67098;51.140;4.088;2024-01-27T01:18:01;28.05;;;9.63;;
32216;SDS011;67098;51.140;4.088;2024-01-27T01:20:29;23.42;;;8.02;;
32216;SDS011;67098;51.140;4.088;2024-01-27T01:22:55;28.73;;;7.50;;
32216;SDS011;67098;51.140;4.088;2024-01-27T01:25:21;32.17;;;8.60;;
32216;SDS011;67098;51.140;4.088;2024-01-27T01:27:47;35.85;;;8.40;;
32216;SDS011;67098;51.140;4.088;2024-01-27T01:30:15;25.63;;;8.23;;
32216;SDS011;67098;51.140;4.088;2024-01-27T01:32:42;31.23;;;8.43;;
32216;SDS011;67098;51.140;4.088;2024-01-27T01:35:08;34.15;;;8.60;;
32216;SDS011;67098;51.140;4.088;2024-01-27T01:37:35;35.42;;;9.07;;
32216;SDS011;67098;51.140;4.088;2024-01-27T01:40:01;25.23;;;7.80;;
32216;SDS011;67098;51.140;4.088;2024-01-27T01:42:28;28.27;;;8.32;;
32216;SDS011;67098;51.140;4.088;2024-01-27T01:44:54;28.60;;;8.45;;
32216;SDS011;67098;51.140;4.088;2024-01-27T01:47:20;32.63;;;8.10;;
32216;SDS011;67098;51.140;4.088;2024-01-27T01:49:47;23.65;;;7.78;;
32216;SDS011;67098;51.140;4.088;2024-01-27T01:52:14;29.70;;;8.77;;
32216;SDS011;67098;51.140;4.088;2024-01-27T01:57:19;23.75;;;7.47;;
32216;SDS011;67098;51.140;4.088;2024-01-27T01:59:45;25.65;;;8.25;;
32216;SDS011;67098;51.140;4.088;2024-01-27T02:02:12;27.45;;;8.52;;
32216;SDS011;67098;51.140;4.088;2024-01-27T02:04:41;30.63;;;8.32;;
32216;SDS011;67098;51.140;4.088;2024-01-27T02:07:08;20.85;;;8.00;;
32216;SDS011;67098;51.140;4.088;2024-01-27T02:09:34;26.70;;;8.52;;
32216;SDS011;67098;51.140;4.088;2024-01-27T02:12:00;28.27;;;8.95;;
32216;SDS011;67098;51.140;4.088;2024-01-27T02:14:26;26.55;;;8.55;;
32216;SDS011;67098;51.140;4.088;2024-01-27T02:16:53;28.92;;;9.02;;
32216;SDS011;67098;51.140;4.088;2024-01-27T02:19:19;23.23;;;7.55;;
32216;SDS011;67098;51.140;4.088;2024-01-27T02:21:45;23.67;;;7.47;;
32216;SDS011;67098;51.140;4.088;2024-01-27T02:24:10;31.75;;;9.43;;
32216;SDS011;67098;51.140;4.088;2024-01-27T02:26:36;28.35;;;8.98;;
32216;SDS011;67098;51.140;4.088;2024-01-27T02:29:02;26.45;;;8.57;;
32216;SDS011;67098;51.140;4.088;2024-01-27T02:31:28;31.30;;;9.07;;
32216;SDS011;67098;51.140;4.088;2024-01-27T02:33:54;32.08;;;9.13;;
32216;SDS011;67098;51.140;4.088;2024-01-27T02:36:20;35.72;;;8.82;;
32216;SDS011;67098;51.140;4.088;2024-01-27T02:38:45;27.00;;;8.32;;
32216;SDS011;67098;51.140;4.088;2024-01-27T02:41:11;26.02;;;9.30;;
32216;SDS011;67098;51.140;4.088;2024-01-27T02:43:37;27.83;;;8.60;;
32216;SDS011;67098;51.140;4.088;2024-01-27T02:46:08;25.80;;;8.50;;
32216;SDS011;67098;51.140;4.088;2024-01-27T02:48:41;32.05;;;9.30;;
32216;SDS011;67098;51.140;4.088;2024-01-27T02:51:08;32.88;;;8.90;;
32216;SDS011;67098;51.140;4.088;2024-01-27T02:53:34;29.75;;;9.73;;
32216;SDS011;67098;51.140;4.088;2024-01-27T02:56:00;28.10;;;8.10;;
32216;SDS011;67098;51.140;4.088;2024-01-27T02:58:25;32.88;;;8.95;;
32216;SDS011;67098;51.140;4.088;2024-01-27T03:00:51;35.30;;;10.85;;
32216;SDS011;67098;51.140;4.088;2024-01-27T03:03:17;33.42;;;8.90;;
32216;SDS011;67098;51.140;4.088;2024-01-27T03:05:43;31.67;;;8.98;;
32216;SDS011;67098;51.140;4.088;2024-01-27T03:08:09;36.10;;;10.25;;
32216;SDS011;67098;51.140;4.088;2024-01-27T03:10:34;22.67;;;8.38;;
32216;SDS011;67098;51.140;4.088;2024-01-27T03:13:00;29.77;;;8.38;;
32216;SDS011;67098;51.140;4.088;2024-01-27T03:15:26;27.27;;;8.00;;
32216;SDS011;67098;51.140;4.088;2024-01-27T03:17:52;23.90;;;8.52;;
32216;SDS011;67098;51.140;4.088;2024-01-27T03:20:17;22.95;;;8.65;;
32216;SDS011;67098;51.140;4.088;2024-01-27T03:22:43;32.92;;;9.95;;
32216;SDS011;67098;51.140;4.088;2024-01-27T03:25:09;27.67;;;8.80;;
32216;SDS011;67098;51.140;4.088;2024-01-27T03:27:38;31.90;;;9.23;;
32216;SDS011;67098;51.140;4.088;2024-01-27T03:30:04;31.85;;;9.82;;
32216;SDS011;67098;51.140;4.088;2024-01-27T03:32:31;33.47;;;8.90;;
32216;SDS011;67098;51.140;4.088;2024-01-27T03:34:58;36.25;;;8.85;;
32216;SDS011;67098;51.140;4.088;2024-01-27T03:37:24;23.17;;;8.23;;
32216;SDS011;67098;51.140;4.088;2024-01-27T03:39:50;21.02;;;7.78;;
32216;SDS011;67098;51.140;4.088;2024-01-27T03:42:15;27.40;;;8.05;;
32216;SDS011;67098;51.140;4.088;2024-01-27T03:44:41;26.02;;;8.15;;
32216;SDS011;67098;51.140;4.088;2024-01-27T03:47:07;24.65;;;8.02;;
32216;SDS011;67098;51.140;4.088;2024-01-27T03:49:33;27.33;;;8.63;;
32216;SDS011;67098;51.140;4.088;2024-01-27T03:51:58;27.02;;;8.65;;
32216;SDS011;67098;51.140;4.088;2024-01-27T03:54:25;23.95;;;9.48;;
32216;SDS011;67098;51.140;4.088;2024-01-27T03:56:50;30.42;;;8.93;;
32216;SDS011;67098;51.140;4.088;2024-01-27T03:59:16;29.30;;;8.75;;
32216;SDS011;67098;51.140;4.088;2024-01-27T04:01:42;28.17;;;8.82;;
32216;SDS011;67098;51.140;4.088;2024-01-27T04:04:08;24.75;;;8.30;;
32216;SDS011;67098;51.140;4.088;2024-01-27T04:06:37;26.92;;;8.02;;
32216;SDS011;67098;51.140;4.088;2024-01-27T04:09:04;22.63;;;7.37;;
32216;SDS011;67098;51.140;4.088;2024-01-27T04:11:33;28.25;;;7.85;;
32216;SDS011;67098;51.140;4.088;2024-01-27T04:14:01;18.45;;;7.22;;
32216;SDS011;67098;51.140;4.088;2024-01-27T04:16:27;33.60;;;8.68;;
32216;SDS011;67098;51.140;4.088;2024-01-27T04:18:53;27.10;;;8.80;;
32216;SDS011;67098;51.140;4.088;2024-01-27T04:21:19;24.17;;;9.00;;
32216;SDS011;67098;51.140;4.088;2024-01-27T04:23:45;29.55;;;9.35;;
32216;SDS011;67098;51.140;4.088;2024-01-27T04:26:10;27.52;;;8.48;;
32216;SDS011;67098;51.140;4.088;2024-01-27T04:28:37;25.88;;;9.35;;
32216;SDS011;67098;51.140;4.088;2024-01-27T04:31:02;24.58;;;8.35;;
32216;SDS011;67098;51.140;4.088;2024-01-27T04:33:28;33.80;;;9.25;;
32216;SDS011;67098;51.140;4.088;2024-01-27T04:35:54;33.70;;;9.82;;
32216;SDS011;67098;51.140;4.088;2024-01-27T04:38:20;26.25;;;9.63;;
32216;SDS011;67098;51.140;4.088;2024-01-27T04:40:46;32.70;;;9.65;;
32216;SDS011;67098;51.140;4.088;2024-01-27T04:43:15;27.52;;;9.55;;
32216;SDS011;67098;51.140;4.088;2024-01-27T04:45:42;32.30;;;8.10;;
32216;SDS011;67098;51.140;4.088;2024-01-27T04:48:08;27.05;;;8.93;;
32216;SDS011;67098;51.140;4.088;2024-01-27T04:50:34;32.58;;;8.65;;
32216;SDS011;67098;51.140;4.088;2024-01-27T04:52:59;32.95;;;8.85;;
32216;SDS011;67098;51.140;4.088;2024-01-27T04:55:26;27.90;;;10.07;;
32216;SDS011;67098;51.140;4.088;2024-01-27T04:57:52;23.20;;;8.60;;
32216;SDS011;67098;51.140;4.088;2024-01-27T05:00:18;29.00;;;9.23;;
32216;SDS011;67098;51.140;4.088;2024-01-27T05:02:44;28.33;;;9.57;;
32216;SDS011;67098;51.140;4.088;2024-01-27T05:05:11;31.45;;;9.68;;
32216;SDS011;67098;51.140;4.088;2024-01-27T05:07:40;27.58;;;8.50;;
32216;SDS011;67098;51.140;4.088;2024-01-27T05:10:06;29.70;;;8.70;;
32216;SDS011;67098;51.140;4.088;2024-01-27T05:12:35;36.67;;;9.88;;
32216;SDS011;67098;51.140;4.088;2024-01-27T05:15:01;27.92;;;9.65;;
32216;SDS011;67098;51.140;4.088;2024-01-27T05:17:26;28.40;;;9.38;;
32216;SDS011;67098;51.140;4.088;2024-01-27T05:19:52;26.85;;;9.25;;
32216;SDS011;67098;51.140;4.088;2024-01-27T05:22:18;33.20;;;10.27;;
32216;SDS011;67098;51.140;4.088;2024-01-27T05:24:44;27.42;;;10.18;;
32216;SDS011;67098;51.140;4.088;2024-01-27T05:27:10;30.58;;;10.35;;
32216;SDS011;67098;51.140;4.088;2024-01-27T05:29:38;32.80;;;9.45;;
32216;SDS011;67098;51.140;4.088;2024-01-27T05:32:04;36.58;;;10.18;;
32216;SDS011;67098;51.140;4.088;2024-01-27T05:34:30;34.50;;;10.73;;
32216;SDS011;67098;51.140;4.088;2024-01-27T05:36:55;27.38;;;10.35;;
32216;SDS011;67098;51.140;4.088;2024-01-27T05:39:21;33.25;;;9.68;;
32216;SDS011;67098;51.140;4.088;2024-01-27T05:41:47;28.20;;;10.70;;
32216;SDS011;67098;51.140;4.088;2024-01-27T05:44:13;29.38;;;9.70;;
32216;SDS011;67098;51.140;4.088;2024-01-27T05:46:38;32.60;;;10.88;;
32216;SDS011;67098;51.140;4.088;2024-01-27T05:49:04;28.30;;;10.02;;
32216;SDS011;67098;51.140;4.088;2024-01-27T05:51:30;31.83;;;10.07;;
32216;SDS011;67098;51.140;4.088;2024-01-27T05:53:56;25.88;;;10.75;;
32216;SDS011;67098;51.140;4.088;2024-01-27T05:56:22;25.05;;;10.32;;
32216;SDS011;67098;51.140;4.088;2024-01-27T05:58:48;32.58;;;10.32;;
32216;SDS011;67098;51.140;4.088;2024-01-27T06:01:14;32.58;;;11.05;;
32216;SDS011;67098;51.140;4.088;2024-01-27T06:03:43;30.17;;;10.93;;
32216;SDS011;67098;51.140;4.088;2024-01-27T06:06:09;31.27;;;10.95;;
32216;SDS011;67098;51.140;4.088;2024-01-27T06:08:35;26.45;;;10.20;;
32216;SDS011;67098;51.140;4.088;2024-01-27T06:11:02;35.03;;;12.10;;
32216;SDS011;67098;51.140;4.088;2024-01-27T06:13:30;34.92;;;10.65;;
32216;SDS011;67098;51.140;4.088;2024-01-27T06:15:58;26.60;;;11.05;;
32216;SDS011;67098;51.140;4.088;2024-01-27T06:18:24;34.70;;;11.43;;
32216;SDS011;67098;51.140;4.088;2024-01-27T06:20:50;38.33;;;12.18;;
32216;SDS011;67098;51.140;4.088;2024-01-27T06:23:16;33.97;;;12.05;;
32216;SDS011;67098;51.140;4.088;2024-01-27T06:25:42;35.55;;;11.63;;
32216;SDS011;67098;51.140;4.088;2024-01-27T06:28:08;34.67;;;12.40;;
32216;SDS011;67098;51.140;4.088;2024-01-27T06:30:34;37.67;;;11.60;;
32216;SDS011;67098;51.140;4.088;2024-01-27T06:33:00;34.15;;;11.82;;
32216;SDS011;67098;51.140;4.088;2024-01-27T06:35:25;29.35;;;11.23;;
32216;SDS011;67098;51.140;4.088;2024-01-27T06:37:51;37.55;;;11.75;;
32216;SDS011;67098;51.140;4.088;2024-01-27T06:40:17;44.78;;;12.38;;
32216;SDS011;67098;51.140;4.088;2024-01-27T06:42:43;40.58;;;12.65;;
32216;SDS011;67098;51.140;4.088;2024-01-27T06:45:09;32.05;;;11.27;;
32216;SDS011;67098;51.140;4.088;2024-01-27T06:47:35;37.33;;;12.35;;
32216;SDS011;67098;51.140;4.088;2024-01-27T06:50:01;32.67;;;11.20;;
32216;SDS011;67098;51.140;4.088;2024-01-27T06:52:28;46.50;;;12.60;;
32216;SDS011;67098;51.140;4.088;2024-01-27T06:54:54;33.97;;;11.30;;
32216;SDS011;67098;51.140;4.088;2024-01-27T06:57:20;38.50;;;12.30;;
32216;SDS011;67098;51.140;4.088;2024-01-27T06:59:53;25.48;;;10.60;;
32216;SDS011;67098;51.140;4.088;2024-01-27T07:02:24;34.42;;;11.52;;
32216;SDS011;67098;51.140;4.088;2024-01-27T07:04:51;26.90;;;9.48;;
32216;SDS011;67098;51.140;4.088;2024-01-27T07:07:22;39.08;;;9.73;;
32216;SDS011;67098;51.140;4.088;2024-01-27T07:09:55;30.73;;;10.02;;
32216;SDS011;67098;51.140;4.088;2024-01-27T07:12:21;37.42;;;10.60;;
32216;SDS011;67098;51.140;4.088;2024-01-27T07:14:47;33.47;;;10.07;;
32216;SDS011;67098;51.140;4.088;2024-01-27T07:17:12;35.30;;;11.07;;
32216;SDS011;67098;51.140;4.088;2024-01-27T07:19:38;38.47;;;10.82;;
32216;SDS011;67098;51.140;4.088;2024-01-27T07:22:04;30.50;;;10.77;;
32216;SDS011;67098;51.140;4.088;2024-01-27T07:24:30;30.02;;;10.30;;
32216;SDS011;67098;51.140;4.088;2024-01-27T07:26:56;35.53;;;10.10;;
32216;SDS011;67098;51.140;4.088;2024-01-27T07:29:23;28.90;;;9.85;;
32216;SDS011;67098;51.140;4.088;2024-01-27T07:31:49;29.38;;;9.68;;
32216;SDS011;67098;51.140;4.088;2024-01-27T07:34:15;34.65;;;11.70;;
32216;SDS011;67098;51.140;4.088;2024-01-27T07:36:41;40.08;;;10.18;;
32216;SDS011;67098;51.140;4.088;2024-01-27T07:39:06;36.30;;;11.43;;
32216;SDS011;67098;51.140;4.088;2024-01-27T07:41:32;33.88;;;10.38;;
32216;SDS011;67098;51.140;4.088;2024-01-27T07:44:06;30.27;;;11.05;;
32216;SDS011;67098;51.140;4.088;2024-01-27T07:46:34;31.95;;;9.93;;
32216;SDS011;67098;51.140;4.088;2024-01-27T07:49:00;29.77;;;11.00;;
32216;SDS011;67098;51.140;4.088;2024-01-27T07:51:26;36.72;;;11.70;;
32216;SDS011;67098;51.140;4.088;2024-01-27T07:53:51;34.00;;;10.52;;
32216;SDS011;67098;51.140;4.088;2024-01-27T07:56:17;38.38;;;11.05;;
32216;SDS011;67098;51.140;4.088;2024-01-27T07:58:43;42.33;;;10.88;;
32216;SDS011;67098;51.140;4.088;2024-01-27T08:01:09;36.97;;;11.43;;
32216;SDS011;67098;51.140;4.088;2024-01-27T08:03:35;34.60;;;11.30;;
32216;SDS011;67098;51.140;4.088;2024-01-27T08:06:04;31.90;;;11.38;;
32216;SDS011;67098;51.140;4.088;2024-01-27T08:08:30;36.22;;;10.63;;
32216;SDS011;67098;51.140;4.088;2024-01-27T08:10:56;37.97;;;10.43;;
32216;SDS011;67098;51.140;4.088;2024-01-27T08:13:22;31.15;;;9.98;;
32216;SDS011;67098;51.140;4.088;2024-01-27T08:15:47;43.38;;;10.73;;
32216;SDS011;67098;51.140;4.088;2024-01-27T08:18:13;35.20;;;10.88;;
32216;SDS011;67098;51.140;4.088;2024-01-27T08:20:39;30.02;;;10.85;;
32216;SDS011;67098;51.140;4.088;2024-01-27T08:23:05;36.20;;;10.73;;
32216;SDS011;67098;51.140;4.088;2024-01-27T08:25:30;42.55;;;10.55;;
32216;SDS011;67098;51.140;4.088;2024-01-27T08:27:56;37.60;;;10.75;;
32216;SDS011;67098;51.140;4.088;2024-01-27T08:30:22;41.33;;;10.68;;
32216;SDS011;67098;51.140;4.088;2024-01-27T08:32:48;37.17;;;10.95;;
32216;SDS011;67098;51.140;4.088;2024-01-27T08:35:13;40.17;;;10.57;;
32216;SDS011;67098;51.140;4.088;2024-01-27T08:37:39;44.22;;;10.70;;
32216;SDS011;67098;51.140;4.088;2024-01-27T08:40:05;39.65;;;10.75;;
32216;SDS011;67098;51.140;4.088;2024-01-27T08:42:32;29.90;;;11.20;;
32216;SDS011;67098;51.140;4.088;2024-01-27T08:44:58;37.38;;;10.57;;
32216;SDS011;67098;51.140;4.088;2024-01-27T08:47:24;32.33;;;9.80;;
32216;SDS011;67098;51.140;4.088;2024-01-27T08:49:50;43.95;;;10.88;;
32216;SDS011;67098;51.140;4.088;2024-01-27T08:52:15;37.35;;;10.13;;
32216;SDS011;67098;51.140;4.088;2024-01-27T08:54:41;33.17;;;10.15;;
32216;SDS011;67098;51.140;4.088;2024-01-27T08:57:07;30.33;;;9.43;;
32216;SDS011;67098;51.140;4.088;2024-01-27T08:59:33;43.05;;;11.02;;
32216;SDS011;67098;51.140;4.088;2024-01-27T09:01:59;48.60;;;13.93;;
32216;SDS011;67098;51.140;4.088;2024-01-27T09:04:25;39.42;;;13.18;;
32216;SDS011;67098;51.140;4.088;2024-01-27T09:06:50;47.22;;;13.20;;
32216;SDS011;67098;51.140;4.088;2024-01-27T09:09:16;47.28;;;13.05;;
32216;SDS011;67098;51.140;4.088;2024-01-27T09:11:42;38.05;;;10.57;;
32216;SDS011;67098;51.140;4.088;2024-01-27T09:14:08;42.63;;;10.82;;
32216;SDS011;67098;51.140;4.088;2024-01-27T09:16:34;28.70;;;9.90;;
32216;SDS011;67098;51.140;4.088;2024-01-27T09:18:59;40.28;;;11.05;;
32216;SDS011;67098;51.140;4.088;2024-01-27T09:21:25;36.70;;;10.38;;
32216;SDS011;67098;51.140;4.088;2024-01-27T09:23:54;38.80;;;10.20;;
32216;SDS011;67098;51.140;4.088;2024-01-27T09:26:21;41.63;;;10.60;;
32216;SDS011;67098;51.140;4.088;2024-01-27T09:28:48;38.70;;;10.68;;
32216;SDS011;67098;51.140;4.088;2024-01-27T09:31:21;41.08;;;10.10;;
32216;SDS011;67098;51.140;4.088;2024-01-27T09:33:50;31.60;;;10.18;;
32216;SDS011;67098;51.140;4.088;2024-01-27T09:38:45;43.75;;;8.93;;
32216;SDS011;67098;51.140;4.088;2024-01-27T09:41:15;34.55;;;9.50;;
32216;SDS011;67098;51.140;4.088;2024-01-27T09:43:44;38.05;;;9.85;;
32216;SDS011;67098;51.140;4.088;2024-01-27T09:46:11;35.47;;;11.10;;
32216;SDS011;67098;51.140;4.088;2024-01-27T09:48:37;36.17;;;9.75;;
32216;SDS011;67098;51.140;4.088;2024-01-27T09:51:04;39.00;;;10.18;;
32216;SDS011;67098;51.140;4.088;2024-01-27T09:53:32;32.40;;;9.60;;
32216;SDS011;67098;51.140;4.088;2024-01-27T09:55:58;36.08;;;9.50;;
32216;SDS011;67098;51.140;4.088;2024-01-27T09:58:26;43.00;;;11.02;;
32216;SDS011;67098;51.140;4.088;2024-01-27T10:00:54;42.20;;;10.73;;
32216;SDS011;67098;51.140;4.088;2024-01-27T10:03:25;29.60;;;8.73;;
32216;SDS011;67098;51.140;4.088;2024-01-27T10:05:53;51.97;;;11.65;;
32216;SDS011;67098;51.140;4.088;2024-01-27T10:08:21;33.65;;;9.18;;
32216;SDS011;67098;51.140;4.088;2024-01-27T10:10:48;37.05;;;9.60;;
32216;SDS011;67098;51.140;4.088;2024-01-27T10:13:23;41.92;;;10.10;;
32216;SDS011;67098;51.140;4.088;2024-01-27T10:18:28;34.28;;;10.32;;
32216;SDS011;67098;51.140;4.088;2024-01-27T10:20:55;33.88;;;9.00;;
32216;SDS011;67098;51.140;4.088;2024-01-27T10:23:21;33.25;;;9.45;;
32216;SDS011;67098;51.140;4.088;2024-01-27T10:25:47;33.50;;;8.30;;
32216;SDS011;67098;51.140;4.088;2024-01-27T10:28:14;32.25;;;9.25;;
32216;SDS011;67098;51.140;4.088;2024-01-27T10:30:40;32.30;;;9.25;;
32216;SDS011;67098;51.140;4.088;2024-01-27T10:33:10;30.73;;;8.75;;
32216;SDS011;67098;51.140;4.088;2024-01-27T10:35:39;35.53;;;9.27;;
32216;SDS011;67098;51.140;4.088;2024-01-27T10:38:05;34.95;;;9.57;;
32216;SDS011;67098;51.140;4.088;2024-01-27T10:40:31;36.22;;;8.77;;
32216;SDS011;67098;51.140;4.088;2024-01-27T10:45:29;34.05;;;9.40;;
32216;SDS011;67098;51.140;4.088;2024-01-27T10:48:04;34.00;;;8.80;;
32216;SDS011;67098;51.140;4.088;2024-01-27T10:50:34;34.17;;;9.02;;
32216;SDS011;67098;51.140;4.088;2024-01-27T10:53:02;35.17;;;9.98;;
32216;SDS011;67098;51.140;4.088;2024-01-27T10:55:34;32.55;;;8.88;;
32216;SDS011;67098;51.140;4.088;2024-01-27T10:58:02;32.08;;;9.32;;
32216;SDS011;67098;51.140;4.088;2024-01-27T11:00:29;37.88;;;9.80;;
32216;SDS011;67098;51.140;4.088;2024-01-27T11:03:00;22.95;;;8.52;;
32216;SDS011;67098;51.140;4.088;2024-01-27T11:05:27;35.72;;;8.82;;
32216;SDS011;67098;51.140;4.088;2024-01-27T11:07:55;34.22;;;10.20;;
32216;SDS011;67098;51.140;4.088;2024-01-27T11:10:22;33.15;;;8.63;;
32216;SDS011;67098;51.140;4.088;2024-01-27T11:12:49;35.15;;;9.85;;
32216;SDS011;67098;51.140;4.088;2024-01-27T11:15:17;42.38;;;10.50;;
32216;SDS011;67098;51.140;4.088;2024-01-27T11:17:43;32.05;;;9.20;;
32216;SDS011;67098;51.140;4.088;2024-01-27T11:20:11;38.45;;;8.82;;
32216;SDS011;67098;51.140;4.088;2024-01-27T11:22:38;39.80;;;9.48;;
32216;SDS011;67098;51.140;4.088;2024-01-27T11:27:40;39.00;;;11.02;;
32216;SDS011;67098;51.140;4.088;2024-01-27T11:32:54;42.97;;;9.23;;
32216;SDS011;67098;51.140;4.088;2024-01-27T11:35:21;36.60;;;9.93;;
32216;SDS011;67098;51.140;4.088;2024-01-27T11:37:47;38.35;;;8.35;;
32216;SDS011;67098;51.140;4.088;2024-01-27T11:40:13;35.50;;;8.27;;
32216;SDS011;67098;51.140;4.088;2024-01-27T11:42:40;40.05;;;9.85;;
32216;SDS011;67098;51.140;4.088;2024-01-27T11:45:07;36.85;;;8.10;;
32216;SDS011;67098;51.140;4.088;2024-01-27T11:47:34;35.03;;;8.10;;
32216;SDS011;67098;51.140;4.088;2024-01-27T11:50:00;35.67;;;8.32;;
32216;SDS011;67098;51.140;4.088;2024-01-27T11:52:27;42.97;;;9.05;;
32216;SDS011;67098;51.140;4.088;2024-01-27T11:55:02;34.90;;;7.45;;
32216;SDS011;67098;51.140;4.088;2024-01-27T11:57:28;39.47;;;7.90;;
32216;SDS011;67098;51.140;4.088;2024-01-27T11:59:55;43.83;;;8.38;;
32216;SDS011;67098;51.140;4.088;2024-01-27T12:02:22;44.30;;;9.93;;
32216;SDS011;67098;51.140;4.088;2024-01-27T12:04:48;43.50;;;10.10;;
32216;SDS011;67098;51.140;4.088;2024-01-27T12:07:14;46.33;;;10.35;;
32216;SDS011;67098;51.140;4.088;2024-01-27T12:09:43;43.97;;;11.38;;
32216;SDS011;67098;51.140;4.088;2024-01-27T12:12:10;69.00;;;17.38;;
32216;SDS011;67098;51.140;4.088;2024-01-27T12:14:47;49.95;;;11.77;;
32216;SDS011;67098;51.140;4.088;2024-01-27T12:17:14;45.85;;;10.65;;
32216;SDS011;67098;51.140;4.088;2024-01-27T12:19:47;39.40;;;9.48;;
32216;SDS011;67098;51.140;4.088;2024-01-27T12:22:23;48.25;;;12.45;;
32216;SDS011;67098;51.140;4.088;2024-01-27T12:24:51;44.00;;;11.55;;
32216;SDS011;67098;51.140;4.088;2024-01-27T12:27:18;49.58;;;11.02;;
32216;SDS011;67098;51.140;4.088;2024-01-27T12:29:45;44.50;;;11.75;;
32216;SDS011;67098;51.140;4.088;2024-01-27T12:32:12;49.75;;;13.10;;
32216;SDS011;67098;51.140;4.088;2024-01-27T12:34:39;51.90;;;11.55;;
32216;SDS011;67098;51.140;4.088;2024-01-27T12:37:07;41.03;;;8.75;;
32216;SDS011;67098;51.140;4.088;2024-01-27T12:39:34;35.30;;;8.88;;
32216;SDS011;67098;51.140;4.088;2024-01-27T12:42:00;36.92;;;8.30;;
32216;SDS011;67098;51.140;4.088;2024-01-27T12:44:25;38.95;;;8.70;;
32216;SDS011;67098;51.140;4.088;2024-01-27T12:46:51;35.78;;;7.75;;
32216;SDS011;67098;51.140;4.088;2024-01-27T12:49:17;35.95;;;7.38;;
32216;SDS011;67098;51.140;4.088;2024-01-27T12:51:44;27.52;;;6.32;;
32216;SDS011;67098;51.140;4.088;2024-01-27T12:54:11;30.50;;;6.60;;
32216;SDS011;67098;51.140;4.088;2024-01-27T12:56:37;34.47;;;7.00;;
32216;SDS011;67098;51.140;4.088;2024-01-27T12:59:03;34.22;;;6.45;;
32216;SDS011;67098;51.140;4.088;2024-01-27T13:01:30;35.35;;;7.30;;
32216;SDS011;67098;51.140;4.088;2024-01-27T13:03:56;32.45;;;6.40;;
32216;SDS011;67098;51.140;4.088;2024-01-27T13:06:22;31.73;;;5.53;;
32216;SDS011;67098;51.140;4.088;2024-01-27T13:08:48;35.10;;;5.50;;
32216;SDS011;67098;51.140;4.088;2024-01-27T13:11:14;34.40;;;6.60;;
32216;SDS011;67098;51.140;4.088;2024-01-27T13:13:40;31.15;;;5.18;;
32216;SDS011;67098;51.140;4.088;2024-01-27T13:16:06;25.70;;;5.13;;
32216;SDS011;67098;51.140;4.088;2024-01-27T13:18:32;29.23;;;4.95;;
32216;SDS011;67098;51.140;4.088;2024-01-27T13:20:58;24.45;;;4.47;;
32216;SDS011;67098;51.140;4.088;2024-01-27T13:23:23;18.80;;;4.13;;
32216;SDS011;67098;51.140;4.088;2024-01-27T13:25:49;22.80;;;4.93;;
32216;SDS011;67098;51.140;4.088;2024-01-27T13:28:15;34.35;;;5.50;;
32216;SDS011;67098;51.140;4.088;2024-01-27T13:30:41;29.67;;;5.70;;
32216;SDS011;67098;51.140;4.088;2024-01-27T13:33:07;29.45;;;5.63;;
32216;SDS011;67098;51.140;4.088;2024-01-27T13:35:32;24.45;;;5.22;;
32216;SDS011;67098;51.140;4.088;2024-01-27T13:37:58;28.65;;;5.80;;
32216;SDS011;67098;51.140;4.088;2024-01-27T13:40:24;19.25;;;4.85;;
32216;SDS011;67098;51.140;4.088;2024-01-27T13:42:50;19.27;;;5.55;;
32216;SDS011;67098;51.140;4.088;2024-01-27T13:45:17;28.70;;;6.47;;
32216;SDS011;67098;51.140;4.088;2024-01-27T13:47:42;25.55;;;5.30;;
32216;SDS011;67098;51.140;4.088;2024-01-27T13:50:08;24.45;;;4.70;;
32216;SDS011;67098;51.140;4.088;2024-01-27T13:52:34;20.77;;;5.05;;
32216;SDS011;67098;51.140;4.088;2024-01-27T13:55:00;15.65;;;4.53;;
32216;SDS011;67098;51.140;4.088;2024-01-27T13:57:26;18.75;;;4.50;;
32216;SDS011;67098;51.140;4.088;2024-01-27T13:59:52;17.75;;;4.22;;
32216;SDS011;67098;51.140;4.088;2024-01-27T14:02:18;18.10;;;4.28;;
32216;SDS011;67098;51.140;4.088;2024-01-27T14:04:44;23.08;;;4.93;;
32216;SDS011;67098;51.140;4.088;2024-01-27T14:07:10;20.08;;;3.83;;
32216;SDS011;67098;51.140;4.088;2024-01-27T14:09:36;17.08;;;3.67;;
32216;SDS011;67098;51.140;4.088;2024-01-27T14:12:01;19.02;;;3.92;;
32216;SDS011;67098;51.140;4.088;2024-01-27T14:14:27;17.75;;;3.47;;
32216;SDS011;67098;51.140;4.088;2024-01-27T14:16:53;15.93;;;3.63;;
32216;SDS011;67098;51.140;4.088;2024-01-27T14:19:19;18.65;;;3.75;;
32216;SDS011;67098;51.140;4.088;2024-01-27T14:21:45;17.88;;;3.88;;
32216;SDS011;67098;51.140;4.088;2024-01-27T14:24:11;17.80;;;4.03;;
32216;SDS011;67098;51.140;4.088;2024-01-27T14:26:36;20.92;;;3.92;;
32216;SDS011;67098;51.140;4.088;2024-01-27T14:29:03;17.30;;;4.22;;
32216;SDS011;67098;51.140;4.088;2024-01-27T14:31:29;13.88;;;3.70;;
32216;SDS011;67098;51.140;4.088;2024-01-27T14:33:55;15.88;;;3.38;;
32216;SDS011;67098;51.140;4.088;2024-01-27T14:36:22;16.98;;;3.75;;
32216;SDS011;67098;51.140;4.088;2024-01-27T14:38:49;16.63;;;3.97;;
32216;SDS011;67098;51.140;4.088;2024-01-27T14:41:15;15.38;;;3.47;;